sensor_id;sensor_type;location;lat;lon;timestamp;temperature;humidity
45066;DHT22;30830;53.704;10.004;2022-07-29T00:01:21;12.90;99.90
45066;DHT22;30830;53.704;10.004;2022-07-29T00:03:47;12.90;99.90
45066;DHT22;30830;53.704;10.004;2022-07-29T00:06:13;12.80;99.90
45066;DHT22;30830;53.704;10.004;2022-07-29T00:08:39;12.80;99.90
45066;DHT22;30830;53.704;10.004;2022-07-29T00:11:04;12.80;99.90
45066;DHT22;30830;53.704;10.004;2022-07-29T00:13:30;12.80;99.90
45066;DHT22;30830;53.704;10.004;2022-07-29T00:15:56;12.80;99.90
45066;DHT22;30830;53.704;10.004;2022-07-29T00:18:21;12.70;99.90
45066;DHT22;30830;53.704;10.004;2022-07-29T00:20:47;12.80;99.90
45066;DHT22;30830;53.704;10.004;2022-07-29T00:23:12;12.80;99.90
45066;DHT22;30830;53.704;10.004;2022-07-29T00:25:38;12.80;99.90
45066;DHT22;30830;53.704;10.004;2022-07-29T00:28:03;12.80;99.90
45066;DHT22;30830;53.704;10.004;2022-07-29T00:30:29;12.80;99.90
45066;DHT22;30830;53.704;10.004;2022-07-29T00:32:55;12.80;99.90
45066;DHT22;30830;53.704;10.004;2022-07-29T00:35:20;12.80;99.90
45066;DHT22;30830;53.704;10.004;2022-07-29T00:38:04;12.80;99.90
45066;DHT22;30830;53.704;10.004;2022-07-29T00:40:30;12.70;99.90
45066;DHT22;30830;53.704;10.004;2022-07-29T00:42:56;12.80;99.90
45066;DHT22;30830;53.704;10.004;2022-07-29T00:45:21;12.70;99.90
45066;DHT22;30830;53.704;10.004;2022-07-29T00:47:47;12.70;99.90
45066;DHT22;30830;53.704;10.004;2022-07-29T00:50:14;12.70;99.90
45066;DHT22;30830;53.704;10.004;2022-07-29T00:52:40;12.60;99.90
45066;DHT22;30830;53.704;10.004;2022-07-29T00:55:09;12.60;99.90
45066;DHT22;30830;53.704;10.004;2022-07-29T00:57:35;12.60;99.90
45066;DHT22;30830;53.704;10.004;2022-07-29T01:00:03;12.60;99.90
45066;DHT22;30830;53.704;10.004;2022-07-29T01:02:28;12.60;99.90
45066;DHT22;30830;53.704;10.004;2022-07-29T01:04:54;12.60;99.90
45066;DHT22;30830;53.704;10.004;2022-07-29T01:07:23;12.60;99.90
45066;DHT22;30830;53.704;10.004;2022-07-29T01:09:50;12.60;99.90
45066;DHT22;30830;53.704;10.004;2022-07-29T01:12:22;12.60;99.90
45066;DHT22;30830;53.704;10.004;2022-07-29T01:14:49;12.50;99.90
45066;DHT22;30830;53.704;10.004;2022-07-29T01:31:05;12.50;99.90
45066;DHT22;30830;53.704;10.004;2022-07-29T01:33:33;12.40;99.90
45066;DHT22;30830;53.704;10.004;2022-07-29T01:36:23;12.40;99.90
45066;DHT22;30830;53.704;10.004;2022-07-29T01:39:08;12.40;99.90
45066;DHT22;30830;53.704;10.004;2022-07-29T01:41:38;12.40;99.90
45066;DHT22;30830;53.704;10.004;2022-07-29T01:44:30;12.40;99.90
45066;DHT22;30830;53.704;10.004;2022-07-29T01:47:00;12.40;99.90
45066;DHT22;30830;53.704;10.004;2022-07-29T01:49:32;12.40;99.90
45066;DHT22;30830;53.704;10.004;2022-07-29T01:52:05;12.40;99.90
45066;DHT22;30830;53.704;10.004;2022-07-29T01:54:37;12.40;99.90
45066;DHT22;30830;53.704;10.004;2022-07-29T01:57:05;12.40;99.90
45066;DHT22;30830;53.704;10.004;2022-07-29T01:59:33;12.30;99.90
45066;DHT22;30830;53.704;10.004;2022-07-29T02:02:01;12.40;99.90
45066;DHT22;30830;53.704;10.004;2022-07-29T02:04:28;12.40;99.90
45066;DHT22;30830;53.704;10.004;2022-07-29T02:07:00;12.40;99.90
45066;DHT22;30830;53.704;10.004;2022-07-29T02:09:27;12.30;99.90
45066;DHT22;30830;53.704;10.004;2022-07-29T02:11:54;12.40;99.90
45066;DHT22;30830;53.704;10.004;2022-07-29T02:14:22;12.40;99.90
45066;DHT22;30830;53.704;10.004;2022-07-29T02:16:52;12.40;99.90
45066;DHT22;30830;53.704;10.004;2022-07-29T02:19:20;12.40;99.90
45066;DHT22;30830;53.704;10.004;2022-07-29T02:21:46;12.40;99.90
45066;DHT22;30830;53.704;10.004;2022-07-29T02:24:14;12.50;99.90
45066;DHT22;30830;53.704;10.004;2022-07-29T02:26:43;12.50;99.90
45066;DHT22;30830;53.704;10.004;2022-07-29T02:29:10;12.50;99.90
45066;DHT22;30830;53.704;10.004;2022-07-29T02:31:38;12.50;99.90
45066;DHT22;30830;53.704;10.004;2022-07-29T02:34:06;12.50;99.90
45066;DHT22;30830;53.704;10.004;2022-07-29T02:36:34;12.50;99.90
45066;DHT22;30830;53.704;10.004;2022-07-29T02:39:00;12.50;99.90
45066;DHT22;30830;53.704;10.004;2022-07-29T02:44:21;12.60;99.90
45066;DHT22;30830;53.704;10.004;2022-07-29T02:47:07;12.60;99.90
45066;DHT22;30830;53.704;10.004;2022-07-29T02:49:42;12.60;99.90
45066;DHT22;30830;53.704;10.004;2022-07-29T02:52:18;12.60;99.90
45066;DHT22;30830;53.704;10.004;2022-07-29T02:57:31;12.60;99.90
45066;DHT22;30830;53.704;10.004;2022-07-29T03:00:04;12.50;99.90
45066;DHT22;30830;53.704;10.004;2022-07-29T03:02:35;12.60;99.90
45066;DHT22;30830;53.704;10.004;2022-07-29T03:05:02;12.60;99.90
45066;DHT22;30830;53.704;10.004;2022-07-29T03:07:29;12.60;99.90
45066;DHT22;30830;53.704;10.004;2022-07-29T03:09:55;12.60;99.90
45066;DHT22;30830;53.704;10.004;2022-07-29T03:12:22;12.60;99.90
45066;DHT22;30830;53.704;10.004;2022-07-29T03:14:49;12.60;99.90
45066;DHT22;30830;53.704;10.004;2022-07-29T03:17:15;12.60;99.90
45066;DHT22;30830;53.704;10.004;2022-07-29T03:19:40;12.60;99.90
45066;DHT22;30830;53.704;10.004;2022-07-29T03:22:07;12.60;99.90
45066;DHT22;30830;53.704;10.004;2022-07-29T03:24:34;12.60;99.90
45066;DHT22;30830;53.704;10.004;2022-07-29T03:27:01;12.60;99.90
45066;DHT22;30830;53.704;10.004;2022-07-29T03:29:27;12.60;99.90
45066;DHT22;30830;53.704;10.004;2022-07-29T03:31:53;12.50;99.90
45066;DHT22;30830;53.704;10.004;2022-07-29T03:34:19;12.50;99.90
45066;DHT22;30830;53.704;10.004;2022-07-29T03:36:45;12.50;99.90
45066;DHT22;30830;53.704;10.004;2022-07-29T03:39:12;12.50;99.90
45066;DHT22;30830;53.704;10.004;2022-07-29T03:41:41;12.50;99.90
45066;DHT22;30830;53.704;10.004;2022-07-29T03:44:08;12.50;99.90
45066;DHT22;30830;53.704;10.004;2022-07-29T03:46:36;12.50;99.90
45066;DHT22;30830;53.704;10.004;2022-07-29T03:49:04;12.50;99.90
45066;DHT22;30830;53.704;10.004;2022-07-29T03:51:30;12.50;99.90
45066;DHT22;30830;53.704;10.004;2022-07-29T03:53:57;12.50;99.90
45066;DHT22;30830;53.704;10.004;2022-07-29T03:56:23;12.50;99.90
45066;DHT22;30830;53.704;10.004;2022-07-29T03:58:52;12.50;99.90
45066;DHT22;30830;53.704;10.004;2022-07-29T04:01:19;12.50;99.90
45066;DHT22;30830;53.704;10.004;2022-07-29T04:03:45;12.50;99.90
45066;DHT22;30830;53.704;10.004;2022-07-29T04:06:12;12.50;99.90
45066;DHT22;30830;53.704;10.004;2022-07-29T04:08:38;12.50;99.90
45066;DHT22;30830;53.704;10.004;2022-07-29T04:11:04;12.50;99.90
45066;DHT22;30830;53.704;10.004;2022-07-29T04:13:31;12.50;99.90
45066;DHT22;30830;53.704;10.004;2022-07-29T04:15:57;12.60;99.90
45066;DHT22;30830;53.704;10.004;2022-07-29T04:18:23;12.50;99.90
45066;DHT22;30830;53.704;10.004;2022-07-29T04:20:49;12.50;99.90
45066;DHT22;30830;53.704;10.004;2022-07-29T04:23:14;12.50;99.90
45066;DHT22;30830;53.704;10.004;2022-07-29T04:25:41;12.50;99.90
45066;DHT22;30830;53.704;10.004;2022-07-29T04:28:08;12.50;99.90
45066;DHT22;30830;53.704;10.004;2022-07-29T04:30:35;12.50;99.90
45066;DHT22;30830;53.704;10.004;2022-07-29T04:33:03;12.50;99.90
45066;DHT22;30830;53.704;10.004;2022-07-29T04:35:30;12.60;99.90
45066;DHT22;30830;53.704;10.004;2022-07-29T04:37:56;12.60;99.90
45066;DHT22;30830;53.704;10.004;2022-07-29T04:40:21;12.60;99.90
45066;DHT22;30830;53.704;10.004;2022-07-29T04:42:47;12.60;99.90
45066;DHT22;30830;53.704;10.004;2022-07-29T04:45:13;12.70;99.90
45066;DHT22;30830;53.704;10.004;2022-07-29T04:47:39;12.70;99.90
45066;DHT22;30830;53.704;10.004;2022-07-29T04:50:05;12.70;99.90
45066;DHT22;30830;53.704;10.004;2022-07-29T04:52:32;12.70;99.90
45066;DHT22;30830;53.704;10.004;2022-07-29T04:54:57;12.80;99.90
45066;DHT22;30830;53.704;10.004;2022-07-29T04:57:23;12.80;99.90
45066;DHT22;30830;53.704;10.004;2022-07-29T04:59:49;12.80;99.90
45066;DHT22;30830;53.704;10.004;2022-07-29T05:02:14;12.80;99.90
45066;DHT22;30830;53.704;10.004;2022-07-29T05:04:40;12.80;99.90
45066;DHT22;30830;53.704;10.004;2022-07-29T05:07:05;12.80;99.90
45066;DHT22;30830;53.704;10.004;2022-07-29T05:09:31;12.80;99.90
45066;DHT22;30830;53.704;10.004;2022-07-29T05:11:57;12.80;99.90
45066;DHT22;30830;53.704;10.004;2022-07-29T05:14:23;12.80;99.90
45066;DHT22;30830;53.704;10.004;2022-07-29T05:16:48;12.90;99.90
45066;DHT22;30830;53.704;10.004;2022-07-29T05:19:16;12.90;99.90
45066;DHT22;30830;53.704;10.004;2022-07-29T05:21:42;12.90;99.90
45066;DHT22;30830;53.704;10.004;2022-07-29T05:24:07;12.90;99.90
45066;DHT22;30830;53.704;10.004;2022-07-29T05:26:33;12.90;99.90
45066;DHT22;30830;53.704;10.004;2022-07-29T05:28:59;13.00;99.90
45066;DHT22;30830;53.704;10.004;2022-07-29T05:31:24;13.00;99.90
45066;DHT22;30830;53.704;10.004;2022-07-29T05:33:56;13.00;99.90
45066;DHT22;30830;53.704;10.004;2022-07-29T05:36:21;13.10;99.90
45066;DHT22;30830;53.704;10.004;2022-07-29T05:38:47;13.10;99.90
45066;DHT22;30830;53.704;10.004;2022-07-29T05:41:13;13.10;99.90
45066;DHT22;30830;53.704;10.004;2022-07-29T05:43:38;13.10;99.90
45066;DHT22;30830;53.704;10.004;2022-07-29T05:46:04;13.20;99.90
45066;DHT22;30830;53.704;10.004;2022-07-29T05:48:29;13.20;99.90
45066;DHT22;30830;53.704;10.004;2022-07-29T05:50:55;13.30;99.90
45066;DHT22;30830;53.704;10.004;2022-07-29T05:53:21;13.40;99.90
45066;DHT22;30830;53.704;10.004;2022-07-29T05:55:47;13.40;99.90
45066;DHT22;30830;53.704;10.004;2022-07-29T05:58:13;13.50;99.90
45066;DHT22;30830;53.704;10.004;2022-07-29T06:00:38;13.50;99.90
45066;DHT22;30830;53.704;10.004;2022-07-29T06:03:05;13.60;99.90
45066;DHT22;30830;53.704;10.004;2022-07-29T06:05:30;13.70;99.90
45066;DHT22;30830;53.704;10.004;2022-07-29T06:07:56;13.80;99.90
45066;DHT22;30830;53.704;10.004;2022-07-29T06:10:22;13.80;99.90
45066;DHT22;30830;53.704;10.004;2022-07-29T06:12:47;13.90;99.90
45066;DHT22;30830;53.704;10.004;2022-07-29T06:15:13;14.00;99.90
45066;DHT22;30830;53.704;10.004;2022-07-29T06:17:38;14.00;99.90
45066;DHT22;30830;53.704;10.004;2022-07-29T06:20:04;14.10;99.90
45066;DHT22;30830;53.704;10.004;2022-07-29T06:22:30;14.10;99.90
45066;DHT22;30830;53.704;10.004;2022-07-29T06:24:55;14.20;99.90
45066;DHT22;30830;53.704;10.004;2022-07-29T06:27:21;14.40;99.90
45066;DHT22;30830;53.704;10.004;2022-07-29T06:29:47;14.50;99.90
45066;DHT22;30830;53.704;10.004;2022-07-29T06:32:12;14.50;99.90
45066;DHT22;30830;53.704;10.004;2022-07-29T06:34:38;14.70;99.90
45066;DHT22;30830;53.704;10.004;2022-07-29T06:37:08;14.70;99.90
45066;DHT22;30830;53.704;10.004;2022-07-29T06:39:37;14.80;99.90
45066;DHT22;30830;53.704;10.004;2022-07-29T06:42:06;15.00;99.90
45066;DHT22;30830;53.704;10.004;2022-07-29T06:44:32;15.00;99.90
45066;DHT22;30830;53.704;10.004;2022-07-29T06:47:03;15.10;99.90
45066;DHT22;30830;53.704;10.004;2022-07-29T06:49:29;15.20;99.90
45066;DHT22;30830;53.704;10.004;2022-07-29T06:51:55;15.40;99.90
45066;DHT22;30830;53.704;10.004;2022-07-29T06:54:20;15.50;99.90
45066;DHT22;30830;53.704;10.004;2022-07-29T06:56:47;15.50;99.90
45066;DHT22;30830;53.704;10.004;2022-07-29T06:59:13;15.70;99.90
45066;DHT22;30830;53.704;10.004;2022-07-29T07:01:41;15.80;99.90
45066;DHT22;30830;53.704;10.004;2022-07-29T07:04:07;15.90;99.90
45066;DHT22;30830;53.704;10.004;2022-07-29T07:06:34;16.10;99.90
45066;DHT22;30830;53.704;10.004;2022-07-29T07:09:00;16.10;99.90
45066;DHT22;30830;53.704;10.004;2022-07-29T07:11:25;16.20;99.90
45066;DHT22;30830;53.704;10.004;2022-07-29T07:13:51;16.30;99.90
45066;DHT22;30830;53.704;10.004;2022-07-29T07:16:16;16.40;99.90
45066;DHT22;30830;53.704;10.004;2022-07-29T07:18:42;16.50;99.90
45066;DHT22;30830;53.704;10.004;2022-07-29T07:21:10;16.60;99.90
45066;DHT22;30830;53.704;10.004;2022-07-29T07:23:36;16.70;99.90
45066;DHT22;30830;53.704;10.004;2022-07-29T07:26:02;16.90;99.90
45066;DHT22;30830;53.704;10.004;2022-07-29T07:28:28;17.00;99.90
45066;DHT22;30830;53.704;10.004;2022-07-29T07:30:54;17.20;99.90
45066;DHT22;30830;53.704;10.004;2022-07-29T07:33:19;17.40;99.90
45066;DHT22;30830;53.704;10.004;2022-07-29T07:35:45;17.70;99.90
45066;DHT22;30830;53.704;10.004;2022-07-29T07:38:10;17.90;99.90
45066;DHT22;30830;53.704;10.004;2022-07-29T07:40:36;18.10;99.90
45066;DHT22;30830;53.704;10.004;2022-07-29T07:43:02;18.30;99.90
45066;DHT22;30830;53.704;10.004;2022-07-29T07:45:28;18.50;99.90
45066;DHT22;30830;53.704;10.004;2022-07-29T07:47:53;18.70;99.90
45066;DHT22;30830;53.704;10.004;2022-07-29T07:50:19;18.80;99.90
45066;DHT22;30830;53.704;10.004;2022-07-29T07:52:55;19.00;99.90
45066;DHT22;30830;53.704;10.004;2022-07-29T07:55:23;19.20;99.90
45066;DHT22;30830;53.704;10.004;2022-07-29T07:57:49;19.40;99.90
45066;DHT22;30830;53.704;10.004;2022-07-29T08:00:16;19.50;99.90
45066;DHT22;30830;53.704;10.004;2022-07-29T08:02:41;19.60;99.90
45066;DHT22;30830;53.704;10.004;2022-07-29T08:05:08;19.80;99.90
45066;DHT22;30830;53.704;10.004;2022-07-29T08:07:34;19.90;99.90
45066;DHT22;30830;53.704;10.004;2022-07-29T08:09:59;20.00;99.90
45066;DHT22;30830;53.704;10.004;2022-07-29T08:12:25;20.10;99.90
45066;DHT22;30830;53.704;10.004;2022-07-29T08:14:50;20.20;99.90
45066;DHT22;30830;53.704;10.004;2022-07-29T08:17:16;20.20;99.90
45066;DHT22;30830;53.704;10.004;2022-07-29T08:19:42;20.20;99.90
45066;DHT22;30830;53.704;10.004;2022-07-29T08:22:07;20.20;99.90
45066;DHT22;30830;53.704;10.004;2022-07-29T08:24:33;20.30;99.90
45066;DHT22;30830;53.704;10.004;2022-07-29T08:27:08;20.40;99.90
45066;DHT22;30830;53.704;10.004;2022-07-29T08:29:34;20.40;99.90
45066;DHT22;30830;53.704;10.004;2022-07-29T08:32:00;20.50;99.90
45066;DHT22;30830;53.704;10.004;2022-07-29T08:34:25;20.50;99.90
45066;DHT22;30830;53.704;10.004;2022-07-29T08:36:51;20.60;99.90
45066;DHT22;30830;53.704;10.004;2022-07-29T08:39:17;20.60;99.90
45066;DHT22;30830;53.704;10.004;2022-07-29T08:41:42;20.70;99.90
45066;DHT22;30830;53.704;10.004;2022-07-29T08:44:09;20.80;99.90
45066;DHT22;30830;53.704;10.004;2022-07-29T08:46:37;20.90;99.70
45066;DHT22;30830;53.704;10.004;2022-07-29T08:49:04;20.90;99.70
45066;DHT22;30830;53.704;10.004;2022-07-29T08:51:30;21.00;99.80
45066;DHT22;30830;53.704;10.004;2022-07-29T08:53:58;21.10;99.80
45066;DHT22;30830;53.704;10.004;2022-07-29T08:56:24;21.20;99.40
45066;DHT22;30830;53.704;10.004;2022-07-29T08:58:50;21.30;99.90
45066;DHT22;30830;53.704;10.004;2022-07-29T09:01:24;21.40;99.90
45066;DHT22;30830;53.704;10.004;2022-07-29T09:03:55;21.40;99.10
45066;DHT22;30830;53.704;10.004;2022-07-29T09:06:22;21.60;98.80
45066;DHT22;30830;53.704;10.004;2022-07-29T09:08:48;21.80;98.70
45066;DHT22;30830;53.704;10.004;2022-07-29T09:11:14;22.10;98.50
45066;DHT22;30830;53.704;10.004;2022-07-29T09:13:40;22.40;97.90
45066;DHT22;30830;53.704;10.004;2022-07-29T09:16:06;22.60;97.60
45066;DHT22;30830;53.704;10.004;2022-07-29T09:18:39;22.80;97.60
45066;DHT22;30830;53.704;10.004;2022-07-29T09:21:07;23.00;96.40
45066;DHT22;30830;53.704;10.004;2022-07-29T09:24:12;23.00;96.40
45066;DHT22;30830;53.704;10.004;2022-07-29T09:26:43;23.20;96.00
45066;DHT22;30830;53.704;10.004;2022-07-29T09:29:17;23.40;95.60
45066;DHT22;30830;53.704;10.004;2022-07-29T09:31:50;23.60;95.10
45066;DHT22;30830;53.704;10.004;2022-07-29T09:34:21;23.60;94.30
45066;DHT22;30830;53.704;10.004;2022-07-29T09:36:49;23.80;94.00
45066;DHT22;30830;53.704;10.004;2022-07-29T09:39:25;23.70;94.10
45066;DHT22;30830;53.704;10.004;2022-07-29T09:41:54;23.60;93.20
45066;DHT22;30830;53.704;10.004;2022-07-29T09:44:21;23.50;94.50
45066;DHT22;30830;53.704;10.004;2022-07-29T09:47:01;23.70;93.80
45066;DHT22;30830;53.704;10.004;2022-07-29T09:49:31;23.90;91.90
45066;DHT22;30830;53.704;10.004;2022-07-29T09:52:05;23.90;92.20
45066;DHT22;30830;53.704;10.004;2022-07-29T09:54:31;24.00;92.20
45066;DHT22;30830;53.704;10.004;2022-07-29T09:57:03;24.10;92.20
45066;DHT22;30830;53.704;10.004;2022-07-29T09:59:29;24.10;90.90
45066;DHT22;30830;53.704;10.004;2022-07-29T10:01:56;23.90;91.70
45066;DHT22;30830;53.704;10.004;2022-07-29T10:04:22;23.80;91.50
45066;DHT22;30830;53.704;10.004;2022-07-29T10:06:57;23.70;90.80
45066;DHT22;30830;53.704;10.004;2022-07-29T10:09:23;23.70;91.40
45066;DHT22;30830;53.704;10.004;2022-07-29T10:14:32;23.80;91.90
45066;DHT22;30830;53.704;10.004;2022-07-29T10:17:03;23.90;92.70
45066;DHT22;30830;53.704;10.004;2022-07-29T10:19:29;24.00;91.00
45066;DHT22;30830;53.704;10.004;2022-07-29T10:21:59;24.10;90.80
45066;DHT22;30830;53.704;10.004;2022-07-29T10:24:29;24.20;90.50
45066;DHT22;30830;53.704;10.004;2022-07-29T10:26:56;24.20;90.40
45066;DHT22;30830;53.704;10.004;2022-07-29T10:29:23;24.10;88.10
45066;DHT22;30830;53.704;10.004;2022-07-29T10:40:51;24.10;87.00
45066;DHT22;30830;53.704;10.004;2022-07-29T10:43:42;24.20;85.80
45066;DHT22;30830;53.704;10.004;2022-07-29T10:46:10;24.30;86.20
45066;DHT22;30830;53.704;10.004;2022-07-29T10:49:09;24.30;86.90
45066;DHT22;30830;53.704;10.004;2022-07-29T10:51:51;24.20;84.00
45066;DHT22;30830;53.704;10.004;2022-07-29T10:54:18;24.20;85.90
45066;DHT22;30830;53.704;10.004;2022-07-29T10:56:43;24.10;85.10
45066;DHT22;30830;53.704;10.004;2022-07-29T11:01:47;24.20;86.60
45066;DHT22;30830;53.704;10.004;2022-07-29T11:04:15;24.20;85.90
45066;DHT22;30830;53.704;10.004;2022-07-29T11:09:28;24.20;84.80
45066;DHT22;30830;53.704;10.004;2022-07-29T11:11:56;24.20;83.30
45066;DHT22;30830;53.704;10.004;2022-07-29T11:17:21;24.20;83.20
45066;DHT22;30830;53.704;10.004;2022-07-29T11:19:47;24.20;85.70
45066;DHT22;30830;53.704;10.004;2022-07-29T11:22:34;24.20;85.40
45066;DHT22;30830;53.704;10.004;2022-07-29T11:25:15;24.20;84.10
45066;DHT22;30830;53.704;10.004;2022-07-29T11:27:42;24.20;85.60
45066;DHT22;30830;53.704;10.004;2022-07-29T11:30:08;24.30;86.30
45066;DHT22;30830;53.704;10.004;2022-07-29T11:32:43;24.30;85.20
45066;DHT22;30830;53.704;10.004;2022-07-29T11:35:23;24.30;84.40
45066;DHT22;30830;53.704;10.004;2022-07-29T11:38:23;24.30;85.10
45066;DHT22;30830;53.704;10.004;2022-07-29T11:43:59;24.40;85.00
45066;DHT22;30830;53.704;10.004;2022-07-29T11:46:44;24.40;85.30
45066;DHT22;30830;53.704;10.004;2022-07-29T11:49:19;24.50;84.70
45066;DHT22;30830;53.704;10.004;2022-07-29T11:51:53;24.60;86.10
45066;DHT22;30830;53.704;10.004;2022-07-29T11:54:25;24.70;86.80
45066;DHT22;30830;53.704;10.004;2022-07-29T11:56:52;24.80;85.40
45066;DHT22;30830;53.704;10.004;2022-07-29T11:59:19;25.00;87.10
45066;DHT22;30830;53.704;10.004;2022-07-29T12:01:55;25.20;82.60
45066;DHT22;30830;53.704;10.004;2022-07-29T12:04:21;25.30;82.90
45066;DHT22;30830;53.704;10.004;2022-07-29T12:06:52;25.40;81.70
45066;DHT22;30830;53.704;10.004;2022-07-29T12:09:18;25.40;80.20
45066;DHT22;30830;53.704;10.004;2022-07-29T12:11:45;25.30;80.80
45066;DHT22;30830;53.704;10.004;2022-07-29T12:14:31;25.40;81.50
45066;DHT22;30830;53.704;10.004;2022-07-29T12:16:58;25.50;81.60
45066;DHT22;30830;53.704;10.004;2022-07-29T12:19:25;25.70;82.80
45066;DHT22;30830;53.704;10.004;2022-07-29T12:21:55;25.80;81.50
45066;DHT22;30830;53.704;10.004;2022-07-29T12:24:22;25.70;81.60
45066;DHT22;30830;53.704;10.004;2022-07-29T12:26:52;25.60;82.60
45066;DHT22;30830;53.704;10.004;2022-07-29T12:29:18;25.60;83.20
45066;DHT22;30830;53.704;10.004;2022-07-29T12:31:45;25.60;84.20
45066;DHT22;30830;53.704;10.004;2022-07-29T12:34:12;25.50;83.40
45066;DHT22;30830;53.704;10.004;2022-07-29T12:36:38;25.30;84.00
45066;DHT22;30830;53.704;10.004;2022-07-29T12:39:04;25.20;84.80
45066;DHT22;30830;53.704;10.004;2022-07-29T12:41:30;25.20;84.10
45066;DHT22;30830;53.704;10.004;2022-07-29T12:43:56;25.00;84.00
45066;DHT22;30830;53.704;10.004;2022-07-29T12:46:22;25.10;84.00
45066;DHT22;30830;53.704;10.004;2022-07-29T12:48:51;25.00;84.20
45066;DHT22;30830;53.704;10.004;2022-07-29T12:51:31;25.00;85.00
45066;DHT22;30830;53.704;10.004;2022-07-29T12:54:22;25.10;85.40
45066;DHT22;30830;53.704;10.004;2022-07-29T12:56:58;25.20;85.70
45066;DHT22;30830;53.704;10.004;2022-07-29T12:59:24;25.30;84.60
45066;DHT22;30830;53.704;10.004;2022-07-29T13:01:51;25.40;85.60
45066;DHT22;30830;53.704;10.004;2022-07-29T13:04:28;25.50;84.00
45066;DHT22;30830;53.704;10.004;2022-07-29T13:07:05;25.50;85.20
45066;DHT22;30830;53.704;10.004;2022-07-29T13:09:43;25.70;86.60
45066;DHT22;30830;53.704;10.004;2022-07-29T13:12:11;25.70;84.30
45066;DHT22;30830;53.704;10.004;2022-07-29T13:14:40;25.80;86.00
45066;DHT22;30830;53.704;10.004;2022-07-29T13:17:14;26.00;85.70
45066;DHT22;30830;53.704;10.004;2022-07-29T13:19:51;26.20;84.60
45066;DHT22;30830;53.704;10.004;2022-07-29T13:22:22;26.30;83.90
45066;DHT22;30830;53.704;10.004;2022-07-29T13:24:56;26.30;84.50
45066;DHT22;30830;53.704;10.004;2022-07-29T13:27:24;26.10;84.60
45066;DHT22;30830;53.704;10.004;2022-07-29T13:29:50;26.00;85.20
45066;DHT22;30830;53.704;10.004;2022-07-29T13:32:20;26.00;85.20
45066;DHT22;30830;53.704;10.004;2022-07-29T13:34:46;26.20;84.90
45066;DHT22;30830;53.704;10.004;2022-07-29T13:37:11;26.30;84.60
45066;DHT22;30830;53.704;10.004;2022-07-29T13:39:37;26.20;84.00
45066;DHT22;30830;53.704;10.004;2022-07-29T13:42:03;26.30;84.70
45066;DHT22;30830;53.704;10.004;2022-07-29T13:44:29;26.10;85.20
45066;DHT22;30830;53.704;10.004;2022-07-29T13:46:55;25.90;84.50
45066;DHT22;30830;53.704;10.004;2022-07-29T13:49:21;25.90;85.70
45066;DHT22;30830;53.704;10.004;2022-07-29T13:51:48;25.80;85.50
45066;DHT22;30830;53.704;10.004;2022-07-29T13:54:14;25.90;84.00
45066;DHT22;30830;53.704;10.004;2022-07-29T13:56:40;25.70;85.30
45066;DHT22;30830;53.704;10.004;2022-07-29T13:59:06;25.70;85.40
45066;DHT22;30830;53.704;10.004;2022-07-29T14:01:33;25.70;85.60
45066;DHT22;30830;53.704;10.004;2022-07-29T14:03:59;25.90;84.90
45066;DHT22;30830;53.704;10.004;2022-07-29T14:06:24;25.80;83.60
45066;DHT22;30830;53.704;10.004;2022-07-29T14:08:50;25.60;83.70
45066;DHT22;30830;53.704;10.004;2022-07-29T14:11:15;25.40;84.50
45066;DHT22;30830;53.704;10.004;2022-07-29T14:13:41;25.20;85.50
45066;DHT22;30830;53.704;10.004;2022-07-29T14:16:07;25.20;85.00
45066;DHT22;30830;53.704;10.004;2022-07-29T14:18:32;25.20;84.60
45066;DHT22;30830;53.704;10.004;2022-07-29T14:20:58;25.20;85.10
45066;DHT22;30830;53.704;10.004;2022-07-29T14:23:24;25.20;86.20
45066;DHT22;30830;53.704;10.004;2022-07-29T14:25:50;25.30;86.00
45066;DHT22;30830;53.704;10.004;2022-07-29T14:28:15;25.30;87.50
45066;DHT22;30830;53.704;10.004;2022-07-29T14:30:41;25.30;86.00
45066;DHT22;30830;53.704;10.004;2022-07-29T14:33:06;25.50;86.10
45066;DHT22;30830;53.704;10.004;2022-07-29T14:35:33;25.40;85.80
45066;DHT22;30830;53.704;10.004;2022-07-29T14:37:59;25.40;84.80
45066;DHT22;30830;53.704;10.004;2022-07-29T14:40:24;25.40;85.70
45066;DHT22;30830;53.704;10.004;2022-07-29T14:42:51;25.30;85.00
45066;DHT22;30830;53.704;10.004;2022-07-29T14:45:17;25.30;85.70
45066;DHT22;30830;53.704;10.004;2022-07-29T14:47:42;25.10;86.40
45066;DHT22;30830;53.704;10.004;2022-07-29T14:50:09;24.90;86.50
45066;DHT22;30830;53.704;10.004;2022-07-29T14:52:34;24.70;86.50
45066;DHT22;30830;53.704;10.004;2022-07-29T14:55:00;24.60;87.70
45066;DHT22;30830;53.704;10.004;2022-07-29T14:57:26;24.40;87.50
45066;DHT22;30830;53.704;10.004;2022-07-29T14:59:51;24.30;88.20
45066;DHT22;30830;53.704;10.004;2022-07-29T15:02:17;24.20;89.40
45066;DHT22;30830;53.704;10.004;2022-07-29T15:04:43;24.20;88.50
45066;DHT22;30830;53.704;10.004;2022-07-29T15:07:11;24.20;88.30
45066;DHT22;30830;53.704;10.004;2022-07-29T15:09:36;24.30;88.60
45066;DHT22;30830;53.704;10.004;2022-07-29T15:12:02;24.30;89.30
45066;DHT22;30830;53.704;10.004;2022-07-29T15:14:28;24.40;88.70
45066;DHT22;30830;53.704;10.004;2022-07-29T15:16:53;24.30;89.10
45066;DHT22;30830;53.704;10.004;2022-07-29T15:19:19;24.40;89.70
45066;DHT22;30830;53.704;10.004;2022-07-29T15:21:45;24.50;89.40
45066;DHT22;30830;53.704;10.004;2022-07-29T15:24:10;24.60;88.90
45066;DHT22;30830;53.704;10.004;2022-07-29T15:26:36;24.60;88.50
45066;DHT22;30830;53.704;10.004;2022-07-29T15:29:02;24.60;89.00
45066;DHT22;30830;53.704;10.004;2022-07-29T15:31:27;24.60;88.70
45066;DHT22;30830;53.704;10.004;2022-07-29T15:33:53;24.50;87.70
45066;DHT22;30830;53.704;10.004;2022-07-29T15:36:18;24.50;86.90
45066;DHT22;30830;53.704;10.004;2022-07-29T15:38:44;24.50;87.90
45066;DHT22;30830;53.704;10.004;2022-07-29T15:41:13;24.40;87.80
45066;DHT22;30830;53.704;10.004;2022-07-29T15:43:43;24.40;88.00
45066;DHT22;30830;53.704;10.004;2022-07-29T15:46:13;24.40;88.30
45066;DHT22;30830;53.704;10.004;2022-07-29T15:48:57;24.50;88.70
45066;DHT22;30830;53.704;10.004;2022-07-29T15:51:23;24.30;87.90
45066;DHT22;30830;53.704;10.004;2022-07-29T15:53:49;24.20;88.50
45066;DHT22;30830;53.704;10.004;2022-07-29T15:56:15;24.20;89.70
45066;DHT22;30830;53.704;10.004;2022-07-29T15:58:40;24.00;90.10
45066;DHT22;30830;53.704;10.004;2022-07-29T16:01:06;24.00;90.20
45066;DHT22;30830;53.704;10.004;2022-07-29T16:03:32;23.90;90.60